createdAt,value
2018-09-21T00:01:30.485Z,69.50
2018-09-21T00:04:01.826Z,69.30
2018-09-21T00:06:29.816Z,69.30
2018-09-21T00:08:57.677Z,69.30
2018-09-21T00:11:25.530Z,69.20
2018-09-21T00:13:53.358Z,69.30
2018-09-21T00:16:21.286Z,69.40
2018-09-21T00:18:49.378Z,69.50
2018-09-21T00:21:17.264Z,69.60
2018-09-21T00:23:45.076Z,69.70
2018-09-21T00:26:12.867Z,69.80
2018-09-21T00:28:40.652Z,70.10
2018-09-21T00:31:08.737Z,70.20
2018-09-21T00:33:36.585Z,70.90
2018-09-21T00:36:04.652Z,70.20
2018-09-21T00:38:32.565Z,71.00
2018-09-21T00:41:00.526Z,70.40
2018-09-21T00:43:28.377Z,70.80
2018-09-21T00:45:56.268Z,71.10
2018-09-21T00:48:24.116Z,71.20
2018-09-21T00:50:52.004Z,71.90
2018-09-21T00:53:19.732Z,71.90
2018-09-21T00:55:47.736Z,72.10
2018-09-21T00:58:15.496Z,71.80
2018-09-21T01:00:43.365Z,71.90
2018-09-21T01:03:11.161Z,72.10
2018-09-21T01:05:38.993Z,72.20
2018-09-21T01:08:06.802Z,72.20
2018-09-21T01:10:34.610Z,72.30
2018-09-21T01:13:02.407Z,72.40
2018-09-21T01:15:30.226Z,72.80
2018-09-21T01:17:57.976Z,73.20
2018-09-21T01:20:25.792Z,73.20
2018-09-21T01:22:53.596Z,73.50
2018-09-21T01:25:21.395Z,74.00
2018-09-21T01:27:49.166Z,74.40
2018-09-21T01:30:17.060Z,74.60
2018-09-21T01:32:44.913Z,74.90
2018-09-21T01:35:12.784Z,75.60
2018-09-21T01:37:40.614Z,74.90
2018-09-21T01:40:08.512Z,75.10
2018-09-21T01:42:36.275Z,75.50
2018-09-21T01:45:04.580Z,75.60
2018-09-21T01:47:32.751Z,75.70
2018-09-21T01:50:00.522Z,76.20
2018-09-21T01:52:28.245Z,76.20
2018-09-21T01:54:56.090Z,76.00
2018-09-21T01:57:23.904Z,76.10
2018-09-21T01:59:51.705Z,76.10
2018-09-21T02:02:19.574Z,76.20
2018-09-21T02:04:47.440Z,75.90
2018-09-21T02:07:15.332Z,76.40
2018-09-21T02:09:43.280Z,76.30
2018-09-21T02:12:11.106Z,76.00
2018-09-21T02:14:38.948Z,75.90
2018-09-21T02:17:06.824Z,75.40
2018-09-21T02:19:34.630Z,76.20
2018-09-21T02:22:02.533Z,76.30
2018-09-21T02:24:30.436Z,76.40
2018-09-21T02:26:58.300Z,76.60
2018-09-21T02:29:26.160Z,76.60
2018-09-21T02:31:53.987Z,76.90
2018-09-21T02:34:21.849Z,77.20
2018-09-21T02:36:49.703Z,77.40
2018-09-21T02:39:17.525Z,77.80
2018-09-21T02:41:45.298Z,78.00
2018-09-21T02:44:13.190Z,78.20
2018-09-21T02:46:41.026Z,78.20
2018-09-21T02:49:08.795Z,78.50
2018-09-21T02:51:36.569Z,78.70
2018-09-21T02:54:04.394Z,79.00
2018-09-21T02:56:32.440Z,79.30
2018-09-21T02:59:00.292Z,79.40
2018-09-21T03:01:28.109Z,79.60
2018-09-21T03:03:56.025Z,80.00
2018-09-21T03:06:23.864Z,80.20
2018-09-21T03:08:51.621Z,80.50
2018-09-21T03:11:19.528Z,80.70
2018-09-21T03:13:47.392Z,80.80
2018-09-21T03:16:15.240Z,81.20
2018-09-21T03:18:43.055Z,81.30
2018-09-21T03:21:11.041Z,81.40
2018-09-21T03:23:38.909Z,81.90
2018-09-21T03:26:06.813Z,82.00
2018-09-21T03:28:34.740Z,82.40
2018-09-21T03:31:02.555Z,83.30
2018-09-21T03:33:30.440Z,82.60
2018-09-21T03:35:58.344Z,82.70
2018-09-21T03:38:26.105Z,82.90
2018-09-21T03:40:53.889Z,82.90
2018-09-21T03:43:21.848Z,83.00
2018-09-21T03:45:49.729Z,83.00
2018-09-21T03:48:17.622Z,83.10
2018-09-21T03:50:45.529Z,83.20
2018-09-21T03:53:13.394Z,84.10
2018-09-21T03:55:41.304Z,83.70
2018-09-21T03:58:09.201Z,83.80
2018-09-21T04:00:36.956Z,84.00
2018-09-21T04:03:04.896Z,84.40
2018-09-21T04:05:32.689Z,84.50
2018-09-21T04:08:00.474Z,84.60
2018-09-21T04:10:28.326Z,84.90
2018-09-21T04:12:56.185Z,85.20
2018-09-21T04:15:24.001Z,85.40
2018-09-21T04:17:51.800Z,85.60
2018-09-21T04:20:19.619Z,86.00
2018-09-21T04:22:52.142Z,86.60
2018-09-21T04:25:20.016Z,86.80
2018-09-21T04:27:47.888Z,87.30
2018-09-21T04:30:15.761Z,87.50
2018-09-21T04:32:43.630Z,87.60
2018-09-21T04:35:11.535Z,87.80
2018-09-21T04:37:39.413Z,87.90
2018-09-21T04:40:07.351Z,88.30
2018-09-21T04:42:35.304Z,88.40
2018-09-21T04:45:03.469Z,88.80
2018-09-21T04:47:31.320Z,90.00
2018-09-21T04:49:59.209Z,89.10
2018-09-21T04:52:27.155Z,89.10
2018-09-21T04:54:54.968Z,89.10
2018-09-21T04:57:22.870Z,89.00
2018-09-21T04:59:50.863Z,89.00
2018-09-21T05:02:18.675Z,89.00
2018-09-21T05:04:46.464Z,89.00
2018-09-21T05:07:14.287Z,89.20
2018-09-21T05:09:42.164Z,89.10
2018-09-21T05:12:10.328Z,89.20
2018-09-21T05:14:38.197Z,89.00
2018-09-21T05:17:06.021Z,89.70
2018-09-21T05:19:33.849Z,88.50
2018-09-21T05:22:08.317Z,88.40
2018-09-21T05:24:36.185Z,88.20
2018-09-21T05:27:04.120Z,88.10
2018-09-21T05:29:32.040Z,88.00
2018-09-21T05:31:59.881Z,87.80
2018-09-21T05:34:27.816Z,87.60
2018-09-21T05:36:55.665Z,87.40
2018-09-21T05:39:23.510Z,87.10
2018-09-21T05:41:51.430Z,86.70
2018-09-21T05:44:19.621Z,86.50
2018-09-21T05:46:47.498Z,86.30
2018-09-21T05:49:15.252Z,86.00
2018-09-21T05:51:43.105Z,85.60
2018-09-21T05:54:10.897Z,85.10
2018-09-21T05:56:39.413Z,84.70
2018-09-21T05:59:07.255Z,84.30
2018-09-21T06:01:35.153Z,83.30
2018-09-21T06:04:03.020Z,84.20
2018-09-21T06:06:30.988Z,83.10
2018-09-21T06:08:58.873Z,82.70
2018-09-21T06:11:26.656Z,82.30
2018-09-21T06:13:54.467Z,81.80
2018-09-21T06:16:22.202Z,81.40
2018-09-21T06:18:50.102Z,81.10
2018-09-21T06:21:18.026Z,80.80
2018-09-21T06:23:45.817Z,80.50
2018-09-21T06:26:13.689Z,80.30
2018-09-21T06:28:41.524Z,80.00
2018-09-21T06:31:09.316Z,79.70
2018-09-21T06:33:37.194Z,79.60
2018-09-21T06:36:05.071Z,79.50
2018-09-21T06:38:32.952Z,79.20
2018-09-21T06:41:00.813Z,79.00
2018-09-21T06:43:28.773Z,79.30
2018-09-21T06:45:56.613Z,78.30
2018-09-21T06:48:24.413Z,77.90
2018-09-21T06:50:52.485Z,77.50
2018-09-21T06:53:20.269Z,77.10
2018-09-21T06:55:48.017Z,76.40
2018-09-21T06:58:15.776Z,75.90
2018-09-21T07:00:43.553Z,75.30
2018-09-21T07:03:11.247Z,74.90
2018-09-21T07:05:38.976Z,74.20
2018-09-21T07:08:06.832Z,73.40
2018-09-21T07:10:34.586Z,72.40
2018-09-21T07:13:04.459Z,71.90
2018-09-21T07:15:32.252Z,71.40
2018-09-21T07:18:00.050Z,70.60
2018-09-21T07:20:27.845Z,70.00
2018-09-21T07:22:55.732Z,69.20
2018-09-21T07:25:23.505Z,68.20
2018-09-21T07:27:51.290Z,67.60
2018-09-21T07:30:19.117Z,67.10
2018-09-21T07:32:46.928Z,66.00
2018-09-21T07:35:21.342Z,65.40
2018-09-21T07:38:02.510Z,64.70
2018-09-21T07:40:30.258Z,64.40
2018-09-21T07:42:58.123Z,63.90
2018-09-21T07:45:25.821Z,63.30
2018-09-21T07:47:53.566Z,63.10
2018-09-21T07:50:21.488Z,62.70
2018-09-21T07:52:49.213Z,62.10
2018-09-21T07:55:17.043Z,61.70
2018-09-21T07:57:44.801Z,61.40
2018-09-21T08:00:12.622Z,60.40
2018-09-21T08:02:40.380Z,59.70
2018-09-21T08:05:08.190Z,58.50
2018-09-21T08:07:35.849Z,58.00
2018-09-21T08:10:03.744Z,57.30
2018-09-21T08:12:31.524Z,57.00
2018-09-21T08:14:59.289Z,56.60
2018-09-21T08:17:27.032Z,56.10
2018-09-21T08:19:54.948Z,55.40
2018-09-21T08:22:22.680Z,55.50
2018-09-21T08:24:50.449Z,54.70
2018-09-21T08:27:19.100Z,54.40
2018-09-21T08:29:47.212Z,53.80
2018-09-21T08:32:15.050Z,53.20
2018-09-21T08:34:43.051Z,53.10
2018-09-21T08:37:11.217Z,52.50
2018-09-21T08:39:38.987Z,52.00
2018-09-21T08:42:06.797Z,51.60
2018-09-21T08:44:34.635Z,51.10
2018-09-21T08:47:02.477Z,50.20
2018-09-21T08:49:30.333Z,50.00
2018-09-21T08:51:58.133Z,49.50
2018-09-21T08:54:26.010Z,49.00
2018-09-21T08:56:53.894Z,48.40
2018-09-21T08:59:21.677Z,48.10
2018-09-21T09:01:49.448Z,47.40
2018-09-21T09:04:38.473Z,46.10
2018-09-21T09:07:06.983Z,44.20
2018-09-21T09:09:34.900Z,42.70
2018-09-21T09:12:02.827Z,42.10
2018-09-21T09:14:30.685Z,41.40
2018-09-21T09:16:58.612Z,41.30
2018-09-21T09:19:26.468Z,40.30
2018-09-21T09:21:54.320Z,39.60
2018-09-21T09:24:22.194Z,38.90
2018-09-21T09:26:50.057Z,39.00
2018-09-21T09:29:17.873Z,38.70
2018-09-21T09:31:45.701Z,38.40
2018-09-21T09:34:13.590Z,38.20
2018-09-21T09:36:41.465Z,37.80
2018-09-21T09:39:11.581Z,37.50
2018-09-21T09:41:39.744Z,36.80
2018-09-21T09:44:07.685Z,36.10
2018-09-21T09:46:35.540Z,35.80
2018-09-21T09:49:03.526Z,35.10
2018-09-21T09:51:31.314Z,35.00
2018-09-21T09:53:59.176Z,35.00
2018-09-21T09:56:27.048Z,34.20
2018-09-21T09:58:54.872Z,34.30
2018-09-21T10:01:22.750Z,33.80
2018-09-21T10:03:50.690Z,33.50
2018-09-21T10:06:18.436Z,33.30
2018-09-21T10:08:46.362Z,32.90
2018-09-21T10:11:14.254Z,32.40
2018-09-21T10:13:42.070Z,32.20
2018-09-21T10:16:09.872Z,32.00
2018-09-21T10:18:37.741Z,31.80
2018-09-21T10:21:05.599Z,31.90
2018-09-21T10:23:33.316Z,31.30
2018-09-21T10:26:01.050Z,30.90
2018-09-21T10:28:28.923Z,30.90
2018-09-21T10:30:56.706Z,31.10
2018-09-21T10:33:24.622Z,30.60
2018-09-21T10:35:52.526Z,30.10
2018-09-21T10:38:20.321Z,30.30
2018-09-21T10:40:48.136Z,30.20
2018-09-21T10:43:15.994Z,29.70
2018-09-21T10:45:43.712Z,29.50
2018-09-21T10:48:11.486Z,29.70
2018-09-21T10:50:39.245Z,30.00
2018-09-21T10:53:07.040Z,30.00
2018-09-21T10:55:34.946Z,30.20
2018-09-21T10:58:02.867Z,29.50
2018-09-21T11:00:30.756Z,29.70
2018-09-21T11:02:58.559Z,30.00
2018-09-21T11:05:26.400Z,30.20
2018-09-21T11:07:54.288Z,30.90
2018-09-21T11:10:22.132Z,31.10
2018-09-21T11:12:49.963Z,31.30
2018-09-21T11:15:17.735Z,31.50
2018-09-21T11:17:45.512Z,31.50
2018-09-21T11:20:13.348Z,31.30
2018-09-21T11:22:41.136Z,31.40
2018-09-21T11:25:08.977Z,31.20
2018-09-21T11:27:40.578Z,31.00
2018-09-21T11:30:08.360Z,31.60
2018-09-21T11:32:36.218Z,30.90
2018-09-21T11:35:04.082Z,30.50
2018-09-21T11:37:31.950Z,29.70
2018-09-21T11:39:59.790Z,29.40
2018-09-21T11:42:27.598Z,29.20
2018-09-21T11:44:55.379Z,29.10
2018-09-21T11:47:23.323Z,29.50
2018-09-21T11:49:51.183Z,29.80
2018-09-21T11:52:19.145Z,30.00
2018-09-21T11:54:46.943Z,30.60
2018-09-21T11:57:14.781Z,31.00
2018-09-21T11:59:42.594Z,30.80
2018-09-21T12:02:13.723Z,30.30
2018-09-21T12:04:41.535Z,30.00
2018-09-21T12:07:09.341Z,30.00
2018-09-21T12:09:37.212Z,30.50
2018-09-21T12:12:05.030Z,30.30
2018-09-21T12:14:32.921Z,30.10
2018-09-21T12:17:00.796Z,30.10
2018-09-21T12:19:28.533Z,30.30
2018-09-21T12:21:56.305Z,30.20
2018-09-21T12:24:24.164Z,30.20
2018-09-21T12:26:51.992Z,30.40
2018-09-21T12:29:19.788Z,31.00
2018-09-21T12:31:47.557Z,31.50
2018-09-21T12:34:15.512Z,31.90
2018-09-21T12:36:43.340Z,32.20
2018-09-21T12:39:12.761Z,32.00
2018-09-21T12:41:40.620Z,31.60
2018-09-21T12:44:09.848Z,31.20
2018-09-21T12:46:37.735Z,30.60
2018-09-21T12:49:05.685Z,29.60
2018-09-21T12:51:34.394Z,29.50
2018-09-21T12:54:02.252Z,29.50
2018-09-21T12:56:30.252Z,29.90
2018-09-21T12:58:58.101Z,30.30
2018-09-21T13:01:26.262Z,30.70
2018-09-21T13:03:54.185Z,31.00
2018-09-21T13:06:22.010Z,30.90
2018-09-21T13:08:49.876Z,31.20
2018-09-21T13:11:17.635Z,31.60
2018-09-21T13:13:45.563Z,31.20
2018-09-21T13:16:13.433Z,30.80
2018-09-21T13:18:41.301Z,30.30
2018-09-21T13:21:09.199Z,29.90
2018-09-21T13:23:36.992Z,29.80
2018-09-21T13:26:04.858Z,30.00
2018-09-21T13:28:32.699Z,30.00
2018-09-21T13:31:00.628Z,30.50
2018-09-21T13:33:28.445Z,31.00
2018-09-21T13:35:56.305Z,31.50
2018-09-21T13:38:24.283Z,32.10
2018-09-21T13:40:52.245Z,32.70
2018-09-21T13:43:20.064Z,33.10
2018-09-21T13:45:47.889Z,33.60
2018-09-21T13:48:15.694Z,34.00
2018-09-21T13:50:43.604Z,34.20
2018-09-21T13:53:11.501Z,34.20
2018-09-21T13:55:39.401Z,33.80
2018-09-21T13:58:07.241Z,33.40
2018-09-21T14:00:35.166Z,32.90
2018-09-21T14:03:03.020Z,32.80
2018-09-21T14:05:30.917Z,33.10
2018-09-21T14:07:58.741Z,33.50
2018-09-21T14:10:26.600Z,33.90
2018-09-21T14:12:54.502Z,34.30
2018-09-21T14:15:22.449Z,34.80
2018-09-21T14:17:50.340Z,35.20
2018-09-21T14:20:18.280Z,35.40
2018-09-21T14:22:46.140Z,35.60
2018-09-21T14:25:14.066Z,35.60
2018-09-21T14:27:41.856Z,35.50
2018-09-21T14:30:09.696Z,35.80
2018-09-21T14:32:37.551Z,36.10
2018-09-21T14:35:05.473Z,36.30
2018-09-21T14:37:33.396Z,36.40
2018-09-21T14:40:01.217Z,36.40
2018-09-21T14:42:29.028Z,36.60
2018-09-21T14:44:56.829Z,36.90
2018-09-21T14:47:24.649Z,37.10
2018-09-21T14:49:52.518Z,37.30
2018-09-21T14:52:20.289Z,37.50
2018-09-21T14:54:48.868Z,37.70
2018-09-21T14:57:16.672Z,38.00
2018-09-21T14:59:44.542Z,38.30
2018-09-21T15:02:12.256Z,38.60
2018-09-21T15:04:39.992Z,38.80
2018-09-21T15:07:07.712Z,39.10
2018-09-21T15:09:35.520Z,39.30
2018-09-21T15:12:03.340Z,39.60
2018-09-21T15:14:31.120Z,39.70
2018-09-21T15:16:59.960Z,39.80
2018-09-21T15:19:27.729Z,40.10
2018-09-21T15:21:55.516Z,40.30
2018-09-21T15:24:23.350Z,40.50
2018-09-21T15:26:51.150Z,40.70
2018-09-21T15:29:18.884Z,40.90
2018-09-21T15:31:46.661Z,41.60
2018-09-21T15:34:14.477Z,44.40
2018-09-21T15:36:42.545Z,46.90
2018-09-21T15:39:11.451Z,48.10
2018-09-21T15:41:39.673Z,49.30
2018-09-21T15:44:07.529Z,52.50
2018-09-21T15:46:35.598Z,56.90
2018-09-21T15:49:03.877Z,61.40
2018-09-21T15:51:31.668Z,66.70
2018-09-21T15:53:59.452Z,72.40
2018-09-21T15:56:27.244Z,75.40
2018-09-21T15:58:55.001Z,78.70
2018-09-21T16:01:22.747Z,81.00
2018-09-21T16:03:50.532Z,83.10
2018-09-21T16:06:38.993Z,85.10
2018-09-21T16:09:07.909Z,86.80
2018-09-21T16:11:36.406Z,88.20
2018-09-21T16:14:04.512Z,89.60
2018-09-21T16:16:32.422Z,90.40
2018-09-21T16:19:00.368Z,91.00
2018-09-21T16:21:28.112Z,91.60
2018-09-21T16:23:55.939Z,92.10
2018-09-21T16:26:23.779Z,93.20
2018-09-21T16:28:51.603Z,91.80
2018-09-21T16:31:19.658Z,90.70
2018-09-21T16:33:47.645Z,90.90
2018-09-21T16:36:15.480Z,91.30
2018-09-21T16:38:43.324Z,91.60
2018-09-21T16:41:11.115Z,92.10
2018-09-21T16:43:38.856Z,92.20
2018-09-21T16:46:06.723Z,92.10
2018-09-21T16:48:34.625Z,92.10
2018-09-21T16:51:05.790Z,92.30
2018-09-21T16:53:33.640Z,92.40
2018-09-21T16:56:01.484Z,92.70
2018-09-21T16:58:29.248Z,93.20
2018-09-21T17:00:57.033Z,93.70
2018-09-21T17:03:24.848Z,94.20
2018-09-21T17:05:52.621Z,94.40
2018-09-21T17:08:20.496Z,94.60
2018-09-21T17:10:48.327Z,94.90
2018-09-21T17:13:16.136Z,95.40
2018-09-21T17:15:43.957Z,95.70
2018-09-21T17:18:11.729Z,96.30
2018-09-21T17:20:39.569Z,97.00
2018-09-21T17:23:07.403Z,97.50
2018-09-21T17:25:35.263Z,97.90
2018-09-21T17:28:02.988Z,98.40
2018-09-21T17:30:30.707Z,99.00
2018-09-21T17:32:58.486Z,99.40
2018-09-21T17:35:26.330Z,99.90
2018-09-21T17:37:54.046Z,99.90
2018-09-21T17:40:21.836Z,99.90
2018-09-21T17:42:49.649Z,99.90
2018-09-21T17:45:17.457Z,99.90
2018-09-21T17:47:45.254Z,99.90
2018-09-21T17:50:13.064Z,99.90
2018-09-21T17:52:40.901Z,99.90
2018-09-21T17:55:08.785Z,99.90
2018-09-21T17:57:36.572Z,99.90
2018-09-21T18:00:04.486Z,99.90
2018-09-21T18:02:32.273Z,99.90
2018-09-21T18:05:00.040Z,99.90
2018-09-21T18:07:27.941Z,99.90
2018-09-21T18:09:55.757Z,99.90
2018-09-21T18:12:23.657Z,99.90
2018-09-21T18:14:51.498Z,99.90
2018-09-21T18:17:19.542Z,99.90
2018-09-21T18:19:47.409Z,99.90
2018-09-21T18:22:15.185Z,99.90
2018-09-21T18:24:43.063Z,99.90
2018-09-21T18:27:10.929Z,99.90
2018-09-21T18:29:38.976Z,99.90
2018-09-21T18:32:07.181Z,99.90
2018-09-21T18:34:35.216Z,99.90
2018-09-21T18:37:03.089Z,99.90
2018-09-21T18:39:31.093Z,99.90
2018-09-21T18:41:58.998Z,99.90
2018-09-21T18:44:26.859Z,99.90
2018-09-21T18:47:00.814Z,99.90
2018-09-21T18:49:28.648Z,99.90
2018-09-21T18:51:56.670Z,99.90
2018-09-21T18:54:24.610Z,99.90
2018-09-21T18:56:52.501Z,99.90
2018-09-21T18:59:20.363Z,99.90
2018-09-21T19:01:48.235Z,99.90
2018-09-21T19:04:16.143Z,99.90
2018-09-21T19:06:44.057Z,99.90
2018-09-21T19:09:12.503Z,99.90
2018-09-21T19:11:40.317Z,99.90
2018-09-21T19:14:08.252Z,99.90
2018-09-21T19:16:37.140Z,99.90
2018-09-21T19:19:05.185Z,99.90
2018-09-21T19:21:33.059Z,99.90
2018-09-21T19:24:03.011Z,99.90
2018-09-21T19:26:30.958Z,99.90
2018-09-21T19:28:58.848Z,99.90
2018-09-21T19:31:26.724Z,99.90
2018-09-21T19:33:54.582Z,99.90
2018-09-21T19:36:22.482Z,99.90
2018-09-21T19:38:50.425Z,99.90
2018-09-21T19:41:18.209Z,99.90
2018-09-21T19:43:46.083Z,99.90
2018-09-21T19:46:13.885Z,99.90
2018-09-21T19:48:41.744Z,99.90
2018-09-21T19:51:09.581Z,99.90
2018-09-21T19:53:37.465Z,99.90
2018-09-21T19:56:05.313Z,99.90
2018-09-21T19:58:33.253Z,99.90
2018-09-21T20:01:01.074Z,99.90
2018-09-21T20:03:28.919Z,99.90
2018-09-21T20:05:56.709Z,99.90
2018-09-21T20:08:24.657Z,99.90
2018-09-21T20:10:52.448Z,99.90
2018-09-21T20:13:20.255Z,99.90
2018-09-21T20:15:48.288Z,99.90
2018-09-21T20:18:16.144Z,99.90
2018-09-21T20:20:43.994Z,99.90
2018-09-21T20:23:11.778Z,99.90
2018-09-21T20:25:39.541Z,99.90
2018-09-21T20:28:07.417Z,99.90
2018-09-21T20:30:41.125Z,99.90
2018-09-21T20:33:14.565Z,99.90
2018-09-21T20:35:42.447Z,99.90
2018-09-21T20:38:10.215Z,99.90
2018-09-21T20:40:38.112Z,99.90
2018-09-21T20:43:05.936Z,99.90
2018-09-21T20:45:33.794Z,99.90
2018-09-21T20:48:01.749Z,99.90
2018-09-21T20:50:29.643Z,99.90
2018-09-21T20:52:57.508Z,99.90
2018-09-21T20:55:25.275Z,99.90
2018-09-21T20:57:53.076Z,99.90
2018-09-21T21:00:20.924Z,99.90
2018-09-21T21:02:52.036Z,99.90
2018-09-21T21:05:19.899Z,99.90
2018-09-21T21:08:06.520Z,99.90
2018-09-21T21:10:45.068Z,99.90
2018-09-21T21:13:12.942Z,99.90
2018-09-21T21:15:40.700Z,99.90
2018-09-21T21:18:08.633Z,99.90
2018-09-21T21:20:36.509Z,99.90
2018-09-21T21:23:04.692Z,99.90
2018-09-21T21:25:32.573Z,99.90
2018-09-21T21:28:00.445Z,99.90
2018-09-21T21:30:28.295Z,99.90
2018-09-21T21:32:56.100Z,99.90
2018-09-21T21:35:24.292Z,99.90
2018-09-21T21:37:52.617Z,99.90
2018-09-21T21:40:20.504Z,99.90
2018-09-21T21:42:48.380Z,99.90
2018-09-21T21:45:16.253Z,99.90
2018-09-21T21:47:44.190Z,99.90
2018-09-21T21:50:12.047Z,99.90
2018-09-21T21:52:39.998Z,99.90
2018-09-21T21:55:07.854Z,99.90
2018-09-21T21:57:35.772Z,99.90
2018-09-21T22:00:04.424Z,99.90
2018-09-21T22:02:34.141Z,99.90
2018-09-21T22:05:01.963Z,99.90
2018-09-21T22:07:36.157Z,99.90
2018-09-21T22:10:05.629Z,99.90
2018-09-21T22:12:39.052Z,99.90
2018-09-21T22:15:12.879Z,99.90
2018-09-21T22:17:40.724Z,99.90
2018-09-21T22:20:08.596Z,99.90
2018-09-21T22:22:36.350Z,99.90
2018-09-21T22:25:04.261Z,99.90
2018-09-21T22:27:32.126Z,99.90
2018-09-21T22:29:59.965Z,99.90
2018-09-21T22:32:27.889Z,99.90
2018-09-21T22:34:55.758Z,99.90
2018-09-21T22:37:23.621Z,99.90
2018-09-21T22:39:51.422Z,99.90
2018-09-21T22:42:19.187Z,99.90
2018-09-21T22:44:47.046Z,99.90
2018-09-21T22:47:14.949Z,99.90
2018-09-21T22:49:42.716Z,99.90
2018-09-21T22:52:10.536Z,99.90
2018-09-21T22:54:38.325Z,99.90
2018-09-21T22:57:06.173Z,99.90
2018-09-21T22:59:34.033Z,99.90
2018-09-21T23:02:01.913Z,99.90
2018-09-21T23:04:29.733Z,99.90
2018-09-21T23:06:57.572Z,99.90
2018-09-21T23:09:25.472Z,99.90
2018-09-21T23:11:53.283Z,99.90
2018-09-21T23:14:21.033Z,99.90
2018-09-21T23:16:48.860Z,99.90
2018-09-21T23:19:16.669Z,99.90
2018-09-21T23:21:44.500Z,99.90
2018-09-21T23:24:12.383Z,99.90
2018-09-21T23:26:40.184Z,99.90
2018-09-21T23:29:08.081Z,99.90
2018-09-21T23:31:35.856Z,99.90
2018-09-21T23:34:03.668Z,99.90
2018-09-21T23:36:31.418Z,99.90
2018-09-21T23:38:59.235Z,99.90
2018-09-21T23:41:27.076Z,99.90
2018-09-21T23:43:54.929Z,99.90
2018-09-21T23:46:22.766Z,99.90
2018-09-21T23:48:50.584Z,99.90
2018-09-21T23:51:18.470Z,99.90
2018-09-21T23:53:46.337Z,99.90
2018-09-21T23:56:14.120Z,99.90
2018-09-21T23:58:41.921Z,99.90
